sensor_id;sensor_type;location;lat;lon;timestamp;pressure;altitude;pressure_sealevel;temperature;humidity
57442;BME280;43284;47.042;15.498;2023-05-19T00:01:14;97727.19;;;10.05;87.14
57442;BME280;43284;47.042;15.498;2023-05-19T00:03:55;97733.34;;;10.04;86.61
57442;BME280;43284;47.042;15.498;2023-05-19T00:06:31;97731.59;;;10.04;86.57
57442;BME280;43284;47.042;15.498;2023-05-19T00:09:00;97721.19;;;10.03;85.99
57442;BME280;43284;47.042;15.498;2023-05-19T00:11:26;97730.03;;;9.99;85.84
57442;BME280;43284;47.042;15.498;2023-05-19T00:13:57;97732.78;;;9.96;87.09
57442;BME280;43284;47.042;15.498;2023-05-19T00:16:24;97724.00;;;9.97;87.33
57442;BME280;43284;47.042;15.498;2023-05-19T00:18:50;97725.72;;;9.98;87.10
57442;BME280;43284;47.042;15.498;2023-05-19T00:21:17;97720.34;;;10.02;87.96
57442;BME280;43284;47.042;15.498;2023-05-19T00:23:43;97723.78;;;10.03;87.66
57442;BME280;43284;47.042;15.498;2023-05-19T00:26:09;97721.34;;;9.98;87.48
57442;BME280;43284;47.042;15.498;2023-05-19T00:28:34;97717.06;;;9.97;87.64
57442;BME280;43284;47.042;15.498;2023-05-19T00:31:00;97719.81;;;9.93;87.03
57442;BME280;43284;47.042;15.498;2023-05-19T00:33:26;97717.28;;;9.91;87.98
57442;BME280;43284;47.042;15.498;2023-05-19T00:35:52;97719.97;;;9.88;87.62
57442;BME280;43284;47.042;15.498;2023-05-19T00:38:17;97718.28;;;9.87;87.35
57442;BME280;43284;47.042;15.498;2023-05-19T00:40:43;97721.75;;;9.87;87.17
57442;BME280;43284;47.042;15.498;2023-05-19T00:43:09;97714.84;;;9.86;86.19
57442;BME280;43284;47.042;15.498;2023-05-19T00:45:35;97715.81;;;9.84;86.03
57442;BME280;43284;47.042;15.498;2023-05-19T00:48:00;97721.97;;;9.81;86.67
57442;BME280;43284;47.042;15.498;2023-05-19T00:50:26;97714.22;;;9.80;87.09
57442;BME280;43284;47.042;15.498;2023-05-19T00:52:53;97716.69;;;9.83;87.39
57442;BME280;43284;47.042;15.498;2023-05-19T00:55:21;97723.69;;;9.82;87.13
57442;BME280;43284;47.042;15.498;2023-05-19T00:57:48;97710.63;;;9.82;87.27
57442;BME280;43284;47.042;15.498;2023-05-19T01:00:14;97715.84;;;9.82;87.39
57442;BME280;43284;47.042;15.498;2023-05-19T01:02:41;97715.81;;;9.84;86.55
57442;BME280;43284;47.042;15.498;2023-05-19T01:05:08;97715.84;;;9.82;86.44
57442;BME280;43284;47.042;15.498;2023-05-19T01:07:33;97713.34;;;9.79;86.57
57442;BME280;43284;47.042;15.498;2023-05-19T01:09:59;97714.31;;;9.77;87.25
57442;BME280;43284;47.042;15.498;2023-05-19T01:12:24;97710.91;;;9.75;87.23
57442;BME280;43284;47.042;15.498;2023-05-19T01:14:50;97713.50;;;9.75;88.17
57442;BME280;43284;47.042;15.498;2023-05-19T01:20:19;97717.72;;;9.79;88.96
57442;BME280;43284;47.042;15.498;2023-05-19T01:23:12;97709.16;;;9.75;89.00
57442;BME280;43284;47.042;15.498;2023-05-19T01:29:27;97712.78;;;9.71;88.70
57442;BME280;43284;47.042;15.498;2023-05-19T01:31:36;97719.03;;;9.67;88.73
57442;BME280;43284;47.042;15.498;2023-05-19T01:34:02;97713.06;;;9.63;88.63
57442;BME280;43284;47.042;15.498;2023-05-19T01:36:32;97713.06;;;9.63;89.43
57442;BME280;43284;47.042;15.498;2023-05-19T01:38:59;97705.19;;;9.65;89.15
57442;BME280;43284;47.042;15.498;2023-05-19T01:41:26;97710.41;;;9.65;88.74
57442;BME280;43284;47.042;15.498;2023-05-19T01:43:54;97709.63;;;9.61;89.11
57442;BME280;43284;47.042;15.498;2023-05-19T01:46:20;97699.19;;;9.61;88.33
57442;BME280;43284;47.042;15.498;2023-05-19T01:48:47;97705.34;;;9.60;88.59
57442;BME280;43284;47.042;15.498;2023-05-19T01:51:13;97707.03;;;9.61;89.72
57442;BME280;43284;47.042;15.498;2023-05-19T01:53:38;97712.38;;;9.58;90.52
57442;BME280;43284;47.042;15.498;2023-05-19T01:56:04;97703.84;;;9.53;91.57
57442;BME280;43284;47.042;15.498;2023-05-19T01:58:47;97710.91;;;9.51;92.04
57442;BME280;43284;47.042;15.498;2023-05-19T02:01:34;97706.44;;;9.53;92.16
57442;BME280;43284;47.042;15.498;2023-05-19T02:06:59;97710.47;;;9.62;92.72
57442;BME280;43284;47.042;15.498;2023-05-19T02:09:53;97705.22;;;9.63;92.33
57442;BME280;43284;47.042;15.498;2023-05-19T02:12:27;97694.72;;;9.65;92.26
57442;BME280;43284;47.042;15.498;2023-05-19T02:17:29;97696.25;;;9.70;92.45
57442;BME280;43284;47.042;15.498;2023-05-19T02:20:00;97693.50;;;9.75;93.22
57442;BME280;43284;47.042;15.498;2023-05-19T02:22:26;97693.53;;;9.74;92.48
57442;BME280;43284;47.042;15.498;2023-05-19T02:24:51;97696.19;;;9.72;92.16
57442;BME280;43284;47.042;15.498;2023-05-19T02:27:17;97689.47;;;9.66;92.54
57442;BME280;43284;47.042;15.498;2023-05-19T02:29:43;97692.13;;;9.65;92.33
57442;BME280;43284;47.042;15.498;2023-05-19T02:32:09;97698.22;;;9.64;91.89
57442;BME280;43284;47.042;15.498;2023-05-19T02:34:35;97698.22;;;9.64;92.54
57442;BME280;43284;47.042;15.498;2023-05-19T02:37:00;97693.09;;;9.62;92.43
57442;BME280;43284;47.042;15.498;2023-05-19T02:39:26;97695.63;;;9.64;92.58
57442;BME280;43284;47.042;15.498;2023-05-19T02:41:53;97696.50;;;9.64;92.57
57442;BME280;43284;47.042;15.498;2023-05-19T02:44:18;97698.97;;;9.67;92.89
57442;BME280;43284;47.042;15.498;2023-05-19T02:46:44;97701.44;;;9.72;93.04
57442;BME280;43284;47.042;15.498;2023-05-19T02:49:10;97692.69;;;9.73;93.17
57442;BME280;43284;47.042;15.498;2023-05-19T02:51:35;97685.75;;;9.72;92.65
57442;BME280;43284;47.042;15.498;2023-05-19T02:54:01;97683.31;;;9.67;92.04
57442;BME280;43284;47.042;15.498;2023-05-19T02:56:26;97687.63;;;9.68;92.86
57442;BME280;43284;47.042;15.498;2023-05-19T02:58:52;97684.28;;;9.65;92.76
57442;BME280;43284;47.042;15.498;2023-05-19T03:01:17;97684.38;;;9.62;92.94
57442;BME280;43284;47.042;15.498;2023-05-19T03:03:45;97682.66;;;9.62;92.73
57442;BME280;43284;47.042;15.498;2023-05-19T03:06:11;97679.47;;;9.54;92.33
57442;BME280;43284;47.042;15.498;2023-05-19T03:08:37;97676.88;;;9.53;92.48
57442;BME280;43284;47.042;15.498;2023-05-19T03:11:02;97674.41;;;9.49;92.76
57442;BME280;43284;47.042;15.498;2023-05-19T03:13:28;97682.28;;;9.48;93.35
57442;BME280;43284;47.042;15.498;2023-05-19T03:15:53;97684.94;;;9.46;92.79
57442;BME280;43284;47.042;15.498;2023-05-19T03:18:22;97684.03;;;9.47;92.95
57442;BME280;43284;47.042;15.498;2023-05-19T03:20:49;97683.25;;;9.45;93.38
57442;BME280;43284;47.042;15.498;2023-05-19T03:23:14;97686.66;;;9.47;92.94
57442;BME280;43284;47.042;15.498;2023-05-19T03:25:40;97683.28;;;9.44;92.67
57442;BME280;43284;47.042;15.498;2023-05-19T03:28:05;97679.84;;;9.43;92.50
57442;BME280;43284;47.042;15.498;2023-05-19T03:30:31;97677.09;;;9.46;93.69
57442;BME280;43284;47.042;15.498;2023-05-19T03:32:56;97681.44;;;9.47;93.90
57442;BME280;43284;47.042;15.498;2023-05-19T03:35:22;97678.03;;;9.45;93.80
57442;BME280;43284;47.042;15.498;2023-05-19T03:37:47;97682.28;;;9.48;94.30
57442;BME280;43284;47.042;15.498;2023-05-19T03:40:13;97688.34;;;9.48;94.29
57442;BME280;43284;47.042;15.498;2023-05-19T03:42:39;97696.13;;;9.50;94.34
57442;BME280;43284;47.042;15.498;2023-05-19T03:45:05;97690.88;;;9.52;94.51
57442;BME280;43284;47.042;15.498;2023-05-19T03:47:31;97698.53;;;9.56;95.04
57442;BME280;43284;47.042;15.498;2023-05-19T03:49:56;97700.16;;;9.59;95.40
57442;BME280;43284;47.042;15.498;2023-05-19T03:52:22;97696.53;;;9.63;95.55
57442;BME280;43284;47.042;15.498;2023-05-19T03:54:47;97692.16;;;9.63;94.64
57442;BME280;43284;47.042;15.498;2023-05-19T03:57:13;97694.72;;;9.65;94.46
57442;BME280;43284;47.042;15.498;2023-05-19T03:59:39;97699.81;;;9.68;94.71
57442;BME280;43284;47.042;15.498;2023-05-19T04:02:05;97698.94;;;9.69;94.97
57442;BME280;43284;47.042;15.498;2023-05-19T04:04:31;97706.66;;;9.72;95.40
57442;BME280;43284;47.042;15.498;2023-05-19T04:06:57;97702.22;;;9.74;95.61
57442;BME280;43284;47.042;15.498;2023-05-19T04:09:22;97710.00;;;9.76;95.97
57442;BME280;43284;47.042;15.498;2023-05-19T04:11:48;97710.81;;;9.78;95.95
57442;BME280;43284;47.042;15.498;2023-05-19T04:14:14;97711.59;;;9.80;95.55
57442;BME280;43284;47.042;15.498;2023-05-19T04:16:40;97716.69;;;9.83;95.43
57442;BME280;43284;47.042;15.498;2023-05-19T04:19:06;97709.66;;;9.85;95.66
57442;BME280;43284;47.042;15.498;2023-05-19T04:21:31;97706.94;;;9.88;95.96
57442;BME280;43284;47.042;15.498;2023-05-19T04:23:57;97717.31;;;9.89;95.75
57442;BME280;43284;47.042;15.498;2023-05-19T04:26:26;97714.66;;;9.91;95.46
57442;BME280;43284;47.042;15.498;2023-05-19T04:28:55;97720.72;;;9.92;94.20
57442;BME280;43284;47.042;15.498;2023-05-19T04:31:20;97724.28;;;9.90;93.88
57442;BME280;43284;47.042;15.498;2023-05-19T04:33:46;97728.69;;;9.88;94.39
57442;BME280;43284;47.042;15.498;2023-05-19T04:36:15;97735.59;;;9.89;94.93
57442;BME280;43284;47.042;15.498;2023-05-19T04:38:42;97739.00;;;9.92;95.23
57442;BME280;43284;47.042;15.498;2023-05-19T04:41:10;97740.66;;;9.94;95.40
57442;BME280;43284;47.042;15.498;2023-05-19T04:43:39;97736.22;;;9.96;95.58
57442;BME280;43284;47.042;15.498;2023-05-19T04:46:06;97746.59;;;9.99;95.27
57442;BME280;43284;47.042;15.498;2023-05-19T04:48:32;97740.44;;;10.00;95.28
57442;BME280;43284;47.042;15.498;2023-05-19T04:50:58;97746.50;;;10.01;94.36
57442;BME280;43284;47.042;15.498;2023-05-19T04:53:27;97749.88;;;10.04;94.73
57442;BME280;43284;47.042;15.498;2023-05-19T04:55:52;97748.94;;;10.05;94.51
57442;BME280;43284;47.042;15.498;2023-05-19T04:58:18;97750.63;;;10.08;94.29
57442;BME280;43284;47.042;15.498;2023-05-19T05:00:44;97756.56;;;10.11;94.77
57442;BME280;43284;47.042;15.498;2023-05-19T05:03:09;97759.13;;;10.13;94.41
57442;BME280;43284;47.042;15.498;2023-05-19T05:05:36;97761.56;;;10.18;94.44
57442;BME280;43284;47.042;15.498;2023-05-19T05:08:02;97759.78;;;10.18;94.41
57442;BME280;43284;47.042;15.498;2023-05-19T05:10:27;97767.53;;;10.21;94.24
57442;BME280;43284;47.042;15.498;2023-05-19T05:12:53;97761.38;;;10.22;93.38
57442;BME280;43284;47.042;15.498;2023-05-19T05:15:19;97763.03;;;10.25;93.16
57442;BME280;43284;47.042;15.498;2023-05-19T05:17:45;97761.22;;;10.27;92.91
57442;BME280;43284;47.042;15.498;2023-05-19T05:20:11;97754.19;;;10.29;92.95
57442;BME280;43284;47.042;15.498;2023-05-19T05:22:37;97758.53;;;10.30;91.93
57442;BME280;43284;47.042;15.498;2023-05-19T05:25:03;97766.28;;;10.31;91.82
57442;BME280;43284;47.042;15.498;2023-05-19T05:27:30;97765.28;;;10.36;91.20
57442;BME280;43284;47.042;15.498;2023-05-19T05:29:55;97769.47;;;10.40;91.27
57442;BME280;43284;47.042;15.498;2023-05-19T05:32:21;97771.97;;;10.43;91.76
57442;BME280;43284;47.042;15.498;2023-05-19T05:34:47;97770.13;;;10.45;91.76
57442;BME280;43284;47.042;15.498;2023-05-19T05:37:13;97772.75;;;10.45;91.78
57442;BME280;43284;47.042;15.498;2023-05-19T05:39:39;97775.38;;;10.45;91.73
57442;BME280;43284;47.042;15.498;2023-05-19T05:42:04;97764.19;;;10.41;91.24
57442;BME280;43284;47.042;15.498;2023-05-19T05:44:30;97773.69;;;10.44;91.41
57442;BME280;43284;47.042;15.498;2023-05-19T05:46:56;97774.47;;;10.46;91.35
57442;BME280;43284;47.042;15.498;2023-05-19T05:49:22;97775.31;;;10.46;91.50
57442;BME280;43284;47.042;15.498;2023-05-19T05:51:48;97778.69;;;10.50;91.47
57442;BME280;43284;47.042;15.498;2023-05-19T05:54:15;97776.06;;;10.50;90.06
57442;BME280;43284;47.042;15.498;2023-05-19T05:56:46;97781.16;;;10.53;89.69
57442;BME280;43284;47.042;15.498;2023-05-19T05:59:11;97779.28;;;10.57;90.09
57442;BME280;43284;47.042;15.498;2023-05-19T06:01:37;97786.16;;;10.59;89.76
57442;BME280;43284;47.042;15.498;2023-05-19T06:04:02;97777.34;;;10.62;89.87
57442;BME280;43284;47.042;15.498;2023-05-19T06:06:28;97780.78;;;10.62;88.73
57442;BME280;43284;47.042;15.498;2023-05-19T06:08:54;97784.16;;;10.66;87.22
57442;BME280;43284;47.042;15.498;2023-05-19T06:11:19;97780.47;;;10.71;88.25
57442;BME280;43284;47.042;15.498;2023-05-19T06:13:45;97792.63;;;10.72;87.83
57442;BME280;43284;47.042;15.498;2023-05-19T06:16:10;97790.66;;;10.78;86.80
57442;BME280;43284;47.042;15.498;2023-05-19T06:18:36;97793.16;;;10.81;85.37
57442;BME280;43284;47.042;15.498;2023-05-19T06:21:02;97790.38;;;10.85;85.42
57442;BME280;43284;47.042;15.498;2023-05-19T06:23:29;97790.19;;;10.90;85.04
57442;BME280;43284;47.042;15.498;2023-05-19T06:25:55;97792.63;;;10.95;84.24
57442;BME280;43284;47.042;15.498;2023-05-19T06:28:21;97794.16;;;11.00;84.33
57442;BME280;43284;47.042;15.498;2023-05-19T06:30:46;97792.13;;;11.07;84.00
57442;BME280;43284;47.042;15.498;2023-05-19T06:33:12;97792.00;;;11.10;83.80
57442;BME280;43284;47.042;15.498;2023-05-19T06:35:37;97792.53;;;11.18;83.17
57442;BME280;43284;47.042;15.498;2023-05-19T06:38:03;97794.13;;;11.22;82.75
57442;BME280;43284;47.042;15.498;2023-05-19T06:40:28;97788.75;;;11.25;82.01
57442;BME280;43284;47.042;15.498;2023-05-19T06:42:54;97789.34;;;11.32;82.35
57442;BME280;43284;47.042;15.498;2023-05-19T06:45:19;97796.09;;;11.38;82.67
57442;BME280;43284;47.042;15.498;2023-05-19T06:47:47;97790.94;;;11.36;79.66
57442;BME280;43284;47.042;15.498;2023-05-19T06:50:13;97794.88;;;11.46;80.26
57442;BME280;43284;47.042;15.498;2023-05-19T06:52:38;97791.06;;;11.53;81.25
57442;BME280;43284;47.042;15.498;2023-05-19T06:55:04;97790.03;;;11.58;81.09
57442;BME280;43284;47.042;15.498;2023-05-19T06:57:30;97792.97;;;11.50;78.92
57442;BME280;43284;47.042;15.498;2023-05-19T06:59:55;97789.25;;;11.55;78.77
57442;BME280;43284;47.042;15.498;2023-05-19T07:02:21;97789.88;;;11.40;78.06
57442;BME280;43284;47.042;15.498;2023-05-19T07:04:46;97792.84;;;11.53;79.23
57442;BME280;43284;47.042;15.498;2023-05-19T07:07:12;97786.56;;;11.57;79.03
57442;BME280;43284;47.042;15.498;2023-05-19T07:09:38;97791.59;;;11.62;81.28
57442;BME280;43284;47.042;15.498;2023-05-19T07:12:03;97790.22;;;11.73;81.17
57442;BME280;43284;47.042;15.498;2023-05-19T07:14:29;97793.78;;;11.72;79.83
57442;BME280;43284;47.042;15.498;2023-05-19T07:16:54;97791.69;;;11.81;79.87
57442;BME280;43284;47.042;15.498;2023-05-19T07:19:20;97787.75;;;11.91;80.11
57442;BME280;43284;47.042;15.498;2023-05-19T07:21:45;97788.22;;;12.01;81.26
57442;BME280;43284;47.042;15.498;2023-05-19T07:24:12;97778.53;;;12.03;80.95
57442;BME280;43284;47.042;15.498;2023-05-19T07:26:38;97780.94;;;12.07;79.75
57442;BME280;43284;47.042;15.498;2023-05-19T07:29:03;97775.84;;;12.23;79.99
57442;BME280;43284;47.042;15.498;2023-05-19T07:31:29;97773.50;;;12.36;79.10
57442;BME280;43284;47.042;15.498;2023-05-19T07:33:55;97777.69;;;12.21;75.81
57442;BME280;43284;47.042;15.498;2023-05-19T07:36:21;97767.22;;;12.40;78.55
57442;BME280;43284;47.042;15.498;2023-05-19T07:38:47;97765.63;;;12.55;77.17
57442;BME280;43284;47.042;15.498;2023-05-19T07:41:13;97764.88;;;12.53;76.41
57442;BME280;43284;47.042;15.498;2023-05-19T07:43:38;97756.34;;;12.67;76.52
57442;BME280;43284;47.042;15.498;2023-05-19T07:46:04;97761.09;;;12.77;76.00
57442;BME280;43284;47.042;15.498;2023-05-19T07:48:30;97760.78;;;12.84;74.89
57442;BME280;43284;47.042;15.498;2023-05-19T07:50:56;97759.78;;;12.86;74.58
57442;BME280;43284;47.042;15.498;2023-05-19T07:53:21;97768.50;;;12.87;73.85
57442;BME280;43284;47.042;15.498;2023-05-19T07:55:47;97759.34;;;12.95;74.06
57442;BME280;43284;47.042;15.498;2023-05-19T07:58:13;97752.78;;;13.04;74.52
57442;BME280;43284;47.042;15.498;2023-05-19T08:00:39;97745.63;;;13.08;74.16
57442;BME280;43284;47.042;15.498;2023-05-19T08:03:07;97747.84;;;13.15;73.19
57442;BME280;43284;47.042;15.498;2023-05-19T08:05:34;97751.66;;;13.27;72.23
57442;BME280;43284;47.042;15.498;2023-05-19T08:08:00;97744.69;;;13.26;72.04
57442;BME280;43284;47.042;15.498;2023-05-19T08:10:25;97748.44;;;13.39;72.97
57442;BME280;43284;47.042;15.498;2023-05-19T08:12:51;97753.31;;;13.47;70.03
57442;BME280;43284;47.042;15.498;2023-05-19T08:15:17;97755.78;;;13.50;71.85
57442;BME280;43284;47.042;15.498;2023-05-19T08:17:43;97751.53;;;13.30;68.75
57442;BME280;43284;47.042;15.498;2023-05-19T08:20:09;97755.84;;;13.31;70.13
57442;BME280;43284;47.042;15.498;2023-05-19T08:22:35;97754.53;;;13.40;69.51
57442;BME280;43284;47.042;15.498;2023-05-19T08:25:01;97762.41;;;13.40;70.75
57442;BME280;43284;47.042;15.498;2023-05-19T08:27:27;97759.94;;;13.54;70.79
57442;BME280;43284;47.042;15.498;2023-05-19T08:29:54;97762.34;;;13.59;70.74
57442;BME280;43284;47.042;15.498;2023-05-19T08:32:20;97759.53;;;13.62;70.80
57442;BME280;43284;47.042;15.498;2023-05-19T08:34:45;97757.84;;;13.78;71.57
57442;BME280;43284;47.042;15.498;2023-05-19T08:37:11;97752.53;;;13.80;69.84
57442;BME280;43284;47.042;15.498;2023-05-19T08:39:36;97758.84;;;13.76;71.96
57442;BME280;43284;47.042;15.498;2023-05-19T08:42:02;97753.56;;;13.93;71.21
57442;BME280;43284;47.042;15.498;2023-05-19T08:44:27;97748.38;;;13.92;68.88
57442;BME280;43284;47.042;15.498;2023-05-19T08:46:55;97747.38;;;13.94;69.04
57442;BME280;43284;47.042;15.498;2023-05-19T08:49:26;97740.69;;;14.05;70.58
57442;BME280;43284;47.042;15.498;2023-05-19T08:54:52;97737.22;;;14.04;68.37
57442;BME280;43284;47.042;15.498;2023-05-19T08:57:21;97738.72;;;13.92;68.89
57442;BME280;43284;47.042;15.498;2023-05-19T08:59:50;97736.22;;;14.22;70.29
57442;BME280;43284;47.042;15.498;2023-05-19T09:02:17;97736.16;;;14.40;70.33
57442;BME280;43284;47.042;15.498;2023-05-19T09:04:44;97728.00;;;14.45;67.80
57442;BME280;43284;47.042;15.498;2023-05-19T09:07:14;97737.84;;;14.58;69.08
57442;BME280;43284;47.042;15.498;2023-05-19T09:09:42;97730.44;;;14.65;67.82
57442;BME280;43284;47.042;15.498;2023-05-19T09:12:09;97735.09;;;14.60;66.80
57442;BME280;43284;47.042;15.498;2023-05-19T09:14:36;97741.19;;;14.60;66.99
57442;BME280;43284;47.042;15.498;2023-05-19T09:17:02;97727.44;;;14.71;67.97
57442;BME280;43284;47.042;15.498;2023-05-19T09:19:28;97731.53;;;14.77;66.08
57442;BME280;43284;47.042;15.498;2023-05-19T09:22:00;97729.22;;;14.87;66.96
57442;BME280;43284;47.042;15.498;2023-05-19T09:24:29;97737.97;;;14.87;66.54
57442;BME280;43284;47.042;15.498;2023-05-19T09:26:55;97739.03;;;14.99;67.72
57442;BME280;43284;47.042;15.498;2023-05-19T09:29:21;97737.00;;;15.04;66.63
57442;BME280;43284;47.042;15.498;2023-05-19T09:31:56;97737.59;;;14.93;66.43
57442;BME280;43284;47.042;15.498;2023-05-19T09:34:25;97734.97;;;15.09;67.04
57442;BME280;43284;47.042;15.498;2023-05-19T09:36:52;97733.72;;;15.00;66.17
57442;BME280;43284;47.042;15.498;2023-05-19T09:39:19;97729.00;;;15.06;66.08
57442;BME280;43284;47.042;15.498;2023-05-19T09:41:45;97722.72;;;15.08;66.93
57442;BME280;43284;47.042;15.498;2023-05-19T09:44:20;97727.13;;;15.08;66.32
57442;BME280;43284;47.042;15.498;2023-05-19T09:46:52;97722.16;;;15.03;65.92
57442;BME280;43284;47.042;15.498;2023-05-19T09:49:28;97723.41;;;15.12;64.87
57442;BME280;43284;47.042;15.498;2023-05-19T09:51:58;97722.41;;;15.29;67.05
57442;BME280;43284;47.042;15.498;2023-05-19T09:54:25;97715.22;;;15.47;67.78
57442;BME280;43284;47.042;15.498;2023-05-19T09:57:04;97714.56;;;15.57;64.94
57442;BME280;43284;47.042;15.498;2023-05-19T09:59:31;97710.97;;;15.58;65.02
57442;BME280;43284;47.042;15.498;2023-05-19T10:01:58;97714.38;;;15.46;66.07
57442;BME280;43284;47.042;15.498;2023-05-19T10:04:25;97714.66;;;15.56;65.82
57442;BME280;43284;47.042;15.498;2023-05-19T10:06:53;97712.78;;;15.58;63.13
57442;BME280;43284;47.042;15.498;2023-05-19T10:09:22;97708.66;;;15.68;64.98
57442;BME280;43284;47.042;15.498;2023-05-19T10:11:52;97713.81;;;15.70;64.63
57442;BME280;43284;47.042;15.498;2023-05-19T10:14:25;97716.59;;;15.82;64.59
57442;BME280;43284;47.042;15.498;2023-05-19T10:16:55;97701.72;;;15.81;64.08
57442;BME280;43284;47.042;15.498;2023-05-19T10:19:22;97707.38;;;15.90;64.85
57442;BME280;43284;47.042;15.498;2023-05-19T10:21:49;97712.56;;;16.05;65.37
57442;BME280;43284;47.042;15.498;2023-05-19T10:24:15;97706.91;;;16.12;64.83
57442;BME280;43284;47.042;15.498;2023-05-19T10:26:44;97702.38;;;15.99;63.92
57442;BME280;43284;47.042;15.498;2023-05-19T10:29:13;97699.75;;;16.14;65.41
57442;BME280;43284;47.042;15.498;2023-05-19T10:31:40;97697.28;;;16.25;61.98
57442;BME280;43284;47.042;15.498;2023-05-19T10:37:01;97706.94;;;16.39;62.62
57442;BME280;43284;47.042;15.498;2023-05-19T10:39:33;97698.50;;;16.34;63.38
57442;BME280;43284;47.042;15.498;2023-05-19T10:42:03;97701.91;;;16.21;60.81
57442;BME280;43284;47.042;15.498;2023-05-19T10:44:57;97705.88;;;16.14;61.57
57442;BME280;43284;47.042;15.498;2023-05-19T10:47:26;97707.00;;;16.10;62.86
57442;BME280;43284;47.042;15.498;2023-05-19T10:49:53;97710.94;;;16.17;64.07
57442;BME280;43284;47.042;15.498;2023-05-19T10:52:23;97707.91;;;16.23;63.80
57442;BME280;43284;47.042;15.498;2023-05-19T10:54:54;97699.72;;;16.28;64.41
57442;BME280;43284;47.042;15.498;2023-05-19T10:57:25;97702.19;;;16.31;64.37
57442;BME280;43284;47.042;15.498;2023-05-19T10:59:56;97700.16;;;16.35;62.38
57442;BME280;43284;47.042;15.498;2023-05-19T11:02:41;97699.69;;;16.42;62.14
57442;BME280;43284;47.042;15.498;2023-05-19T11:05:14;97700.16;;;16.49;63.33
57442;BME280;43284;47.042;15.498;2023-05-19T11:07:43;97695.63;;;16.51;63.15
57442;BME280;43284;47.042;15.498;2023-05-19T11:10:09;97691.56;;;16.45;64.55
57442;BME280;43284;47.042;15.498;2023-05-19T11:12:43;97688.16;;;16.58;61.03
57442;BME280;43284;47.042;15.498;2023-05-19T11:15:13;97682.13;;;16.56;59.72
57442;BME280;43284;47.042;15.498;2023-05-19T11:17:39;97686.66;;;16.54;61.70
57442;BME280;43284;47.042;15.498;2023-05-19T11:20:07;97680.72;;;16.50;60.18
57442;BME280;43284;47.042;15.498;2023-05-19T11:22:35;97676.34;;;16.36;60.60
57442;BME280;43284;47.042;15.498;2023-05-19T11:25:02;97681.28;;;16.55;62.88
57442;BME280;43284;47.042;15.498;2023-05-19T11:27:32;97682.63;;;16.75;62.72
57442;BME280;43284;47.042;15.498;2023-05-19T11:30:08;97682.38;;;16.80;60.41
57442;BME280;43284;47.042;15.498;2023-05-19T11:32:39;97681.94;;;16.59;59.42
57442;BME280;43284;47.042;15.498;2023-05-19T11:35:07;97675.78;;;16.73;58.35
57442;BME280;43284;47.042;15.498;2023-05-19T11:37:34;97673.91;;;16.60;59.92
57442;BME280;43284;47.042;15.498;2023-05-19T11:40:02;97671.50;;;16.70;61.34
57442;BME280;43284;47.042;15.498;2023-05-19T11:42:30;97677.31;;;16.89;60.07
57442;BME280;43284;47.042;15.498;2023-05-19T11:44:56;97671.88;;;17.05;58.69
57442;BME280;43284;47.042;15.498;2023-05-19T11:47:21;97667.47;;;16.37;59.24
57442;BME280;43284;47.042;15.498;2023-05-19T11:49:47;97671.63;;;16.68;60.88
57442;BME280;43284;47.042;15.498;2023-05-19T11:52:13;97659.50;;;16.79;59.30
57442;BME280;43284;47.042;15.498;2023-05-19T11:54:39;97665.84;;;16.76;61.57
57442;BME280;43284;47.042;15.498;2023-05-19T11:57:08;97661.13;;;17.21;61.77
57442;BME280;43284;47.042;15.498;2023-05-19T11:59:38;97645.81;;;17.39;60.71
57442;BME280;43284;47.042;15.498;2023-05-19T12:04:43;97658.81;;;17.55;59.59
57442;BME280;43284;47.042;15.498;2023-05-19T12:07:12;97648.97;;;17.57;61.93
57442;BME280;43284;47.042;15.498;2023-05-19T12:09:42;97656.09;;;17.82;60.44
57442;BME280;43284;47.042;15.498;2023-05-19T12:12:07;97658.47;;;18.24;61.05
57442;BME280;43284;47.042;15.498;2023-05-19T12:14:33;97648.22;;;18.43;57.67
57442;BME280;43284;47.042;15.498;2023-05-19T12:17:12;97652.44;;;18.46;56.23
57442;BME280;43284;47.042;15.498;2023-05-19T12:19:39;97643.03;;;18.42;56.86
57442;BME280;43284;47.042;15.498;2023-05-19T12:22:06;97645.88;;;18.39;56.59
57442;BME280;43284;47.042;15.498;2023-05-19T12:24:33;97643.25;;;18.63;56.95
57442;BME280;43284;47.042;15.498;2023-05-19T12:27:19;97638.63;;;19.02;57.82
57442;BME280;43284;47.042;15.498;2023-05-19T12:29:52;97638.41;;;19.05;53.50
57442;BME280;43284;47.042;15.498;2023-05-19T12:32:26;97634.44;;;19.10;53.17
57442;BME280;43284;47.042;15.498;2023-05-19T12:34:52;97640.75;;;19.21;53.24
57442;BME280;43284;47.042;15.498;2023-05-19T12:37:18;97633.63;;;19.21;53.63
57442;BME280;43284;47.042;15.498;2023-05-19T12:39:44;97637.00;;;19.12;54.32
57442;BME280;43284;47.042;15.498;2023-05-19T12:42:10;97630.19;;;18.97;53.97
57442;BME280;43284;47.042;15.498;2023-05-19T12:44:43;97632.56;;;18.88;55.09
57442;BME280;43284;47.042;15.498;2023-05-19T12:47:15;97629.75;;;19.03;55.11
57442;BME280;43284;47.042;15.498;2023-05-19T12:50:03;97637.31;;;18.96;53.63
57442;BME280;43284;47.042;15.498;2023-05-19T12:52:32;97623.50;;;18.80;54.63
57442;BME280;43284;47.042;15.498;2023-05-19T12:55:03;97624.13;;;18.59;52.95
57442;BME280;43284;47.042;15.498;2023-05-19T12:57:33;97622.34;;;18.71;55.53
57442;BME280;43284;47.042;15.498;2023-05-19T13:00:21;97625.72;;;18.73;53.15
57442;BME280;43284;47.042;15.498;2023-05-19T13:03:06;97630.16;;;18.85;55.43
57442;BME280;43284;47.042;15.498;2023-05-19T13:05:42;97622.38;;;19.06;54.50
57442;BME280;43284;47.042;15.498;2023-05-19T13:08:13;97628.06;;;19.13;55.76
57442;BME280;43284;47.042;15.498;2023-05-19T13:10:40;97622.69;;;18.66;52.84
57442;BME280;43284;47.042;15.498;2023-05-19T13:13:07;97611.44;;;19.11;54.03
57442;BME280;43284;47.042;15.498;2023-05-19T13:15:36;97607.63;;;19.26;54.04